sensor_id;sensor_type;location;lat;lon;timestamp;temperature;humidity
56123;DHT22;42426;46.104;19.656;2023-02-28T00:01:03;102.60;2201.60
56123;DHT22;42426;46.104;19.656;2023-02-28T00:03:29;102.50;2176.00
56123;DHT22;42426;46.104;19.656;2023-02-28T00:05:55;102.40;2201.60
56123;DHT22;42426;46.104;19.656;2023-02-28T00:08:20;102.40;2227.20
56123;DHT22;42426;46.104;19.656;2023-02-28T00:10:47;102.40;2227.20
56123;DHT22;42426;46.104;19.656;2023-02-28T00:13:13;102.40;2227.20
56123;DHT22;42426;46.104;19.656;2023-02-28T00:15:38;77.70;2227.20
56123;DHT22;42426;46.104;19.656;2023-02-28T00:18:06;77.60;2227.20
56123;DHT22;42426;46.104;19.656;2023-02-28T00:20:32;77.60;2227.20
56123;DHT22;42426;46.104;19.656;2023-02-28T00:22:57;77.60;2227.20
56123;DHT22;42426;46.104;19.656;2023-02-28T00:25:25;77.50;2227.20
56123;DHT22;42426;46.104;19.656;2023-02-28T00:27:53;77.60;2227.20
56123;DHT22;42426;46.104;19.656;2023-02-28T00:30:21;77.50;2227.20
56123;DHT22;42426;46.104;19.656;2023-02-28T00:32:50;77.50;2227.20
56123;DHT22;42426;46.104;19.656;2023-02-28T00:35:16;77.60;2227.20
56123;DHT22;42426;46.104;19.656;2023-02-28T00:37:42;77.40;2227.20
56123;DHT22;42426;46.104;19.656;2023-02-28T00:40:09;77.30;2227.20
56123;DHT22;42426;46.104;19.656;2023-02-28T00:42:36;77.40;2227.20
56123;DHT22;42426;46.104;19.656;2023-02-28T00:45:03;77.40;2227.20
56123;DHT22;42426;46.104;19.656;2023-02-28T00:47:30;77.30;2227.20
56123;DHT22;42426;46.104;19.656;2023-02-28T00:49:56;77.20;2227.20
56123;DHT22;42426;46.104;19.656;2023-02-28T00:52:21;77.20;2227.20
56123;DHT22;42426;46.104;19.656;2023-02-28T00:54:47;77.10;2227.20
56123;DHT22;42426;46.104;19.656;2023-02-28T00:57:13;77.10;2227.20
56123;DHT22;42426;46.104;19.656;2023-02-28T00:59:39;77.10;2227.20
56123;DHT22;42426;46.104;19.656;2023-02-28T01:02:05;77.10;2227.20
56123;DHT22;42426;46.104;19.656;2023-02-28T01:04:31;77.10;2227.20
56123;DHT22;42426;46.104;19.656;2023-02-28T01:06:58;77.00;2227.20
56123;DHT22;42426;46.104;19.656;2023-02-28T01:09:23;77.00;2227.20
56123;DHT22;42426;46.104;19.656;2023-02-28T01:11:49;77.00;2227.20
56123;DHT22;42426;46.104;19.656;2023-02-28T01:14:16;77.00;2227.20
56123;DHT22;42426;46.104;19.656;2023-02-28T01:16:42;76.90;2227.20
56123;DHT22;42426;46.104;19.656;2023-02-28T01:19:08;76.90;2227.20
56123;DHT22;42426;46.104;19.656;2023-02-28T01:21:33;76.90;2227.20
56123;DHT22;42426;46.104;19.656;2023-02-28T01:24:00;76.90;2227.20
56123;DHT22;42426;46.104;19.656;2023-02-28T01:26:26;76.90;2227.20
56123;DHT22;42426;46.104;19.656;2023-02-28T01:28:52;76.90;2227.20
56123;DHT22;42426;46.104;19.656;2023-02-28T01:31:19;52.10;2227.20
56123;DHT22;42426;46.104;19.656;2023-02-28T01:33:45;52.10;2227.20
56123;DHT22;42426;46.104;19.656;2023-02-28T01:36:15;76.80;2227.20
56123;DHT22;42426;46.104;19.656;2023-02-28T01:38:42;76.80;2227.20
56123;DHT22;42426;46.104;19.656;2023-02-28T01:41:09;76.90;2227.20
56123;DHT22;42426;46.104;19.656;2023-02-28T01:46:09;76.80;2227.20
56123;DHT22;42426;46.104;19.656;2023-02-28T01:48:38;52.10;2227.20
56123;DHT22;42426;46.104;19.656;2023-02-28T01:51:14;52.00;2227.20
56123;DHT22;42426;46.104;19.656;2023-02-28T01:53:54;52.00;2227.20
56123;DHT22;42426;46.104;19.656;2023-02-28T01:56:24;52.10;2227.20
56123;DHT22;42426;46.104;19.656;2023-02-28T01:58:52;52.10;2227.20
56123;DHT22;42426;46.104;19.656;2023-02-28T02:01:20;52.10;2227.20
56123;DHT22;42426;46.104;19.656;2023-02-28T02:03:52;52.10;2227.20
56123;DHT22;42426;46.104;19.656;2023-02-28T02:06:22;52.10;2227.20
56123;DHT22;42426;46.104;19.656;2023-02-28T02:08:50;52.00;2227.20
56123;DHT22;42426;46.104;19.656;2023-02-28T02:11:19;52.00;2227.20
56123;DHT22;42426;46.104;19.656;2023-02-28T02:13:55;52.00;2227.20
56123;DHT22;42426;46.104;19.656;2023-02-28T02:28:08;51.90;2227.20
56123;DHT22;42426;46.104;19.656;2023-02-28T02:36:36;51.80;2227.20
56123;DHT22;42426;46.104;19.656;2023-02-28T02:40:07;51.80;2227.20
56123;DHT22;42426;46.104;19.656;2023-02-28T02:42:04;52.00;2227.20
56123;DHT22;42426;46.104;19.656;2023-02-28T02:44:42;51.80;2227.20
56123;DHT22;42426;46.104;19.656;2023-02-28T02:47:17;51.70;2227.20
56123;DHT22;42426;46.104;19.656;2023-02-28T02:49:49;51.70;2227.20
56123;DHT22;42426;46.104;19.656;2023-02-28T02:52:20;51.70;2227.20
56123;DHT22;42426;46.104;19.656;2023-02-28T02:54:49;51.70;2227.20
56123;DHT22;42426;46.104;19.656;2023-02-28T02:57:33;51.70;2227.20
56123;DHT22;42426;46.104;19.656;2023-02-28T03:05:02;52.00;2227.20
56123;DHT22;42426;46.104;19.656;2023-02-28T03:07:29;51.80;2227.20
56123;DHT22;42426;46.104;19.656;2023-02-28T03:09:56;51.70;2227.20
56123;DHT22;42426;46.104;19.656;2023-02-28T03:15:13;51.90;2227.20
56123;DHT22;42426;46.104;19.656;2023-02-28T03:18:14;51.70;2227.20
56123;DHT22;42426;46.104;19.656;2023-02-28T03:20:47;51.70;2227.20
56123;DHT22;42426;46.104;19.656;2023-02-28T03:23:21;51.70;2227.20
56123;DHT22;42426;46.104;19.656;2023-02-28T03:26:12;51.80;2227.20
56123;DHT22;42426;46.104;19.656;2023-02-28T03:28:53;51.80;2227.20
56123;DHT22;42426;46.104;19.656;2023-02-28T03:31:43;51.90;2227.20
56123;DHT22;42426;46.104;19.656;2023-02-28T03:34:41;51.70;2227.20
56123;DHT22;42426;46.104;19.656;2023-02-28T03:37:12;51.80;2227.20
56123;DHT22;42426;46.104;19.656;2023-02-28T03:39:46;51.70;2227.20
56123;DHT22;42426;46.104;19.656;2023-02-28T03:42:17;51.70;2227.20
56123;DHT22;42426;46.104;19.656;2023-02-28T03:44:57;51.70;2227.20
56123;DHT22;42426;46.104;19.656;2023-02-28T03:47:28;51.70;2227.20
56123;DHT22;42426;46.104;19.656;2023-02-28T03:52:35;51.80;2227.20
56123;DHT22;42426;46.104;19.656;2023-02-28T03:55:08;51.70;2227.20
56123;DHT22;42426;46.104;19.656;2023-02-28T04:02:39;51.70;2227.20
56123;DHT22;42426;46.104;19.656;2023-02-28T04:05:06;51.60;2227.20
56123;DHT22;42426;46.104;19.656;2023-02-28T04:07:32;51.60;2227.20
56123;DHT22;42426;46.104;19.656;2023-02-28T04:10:00;51.70;2227.20
56123;DHT22;42426;46.104;19.656;2023-02-28T04:12:26;51.70;2227.20
56123;DHT22;42426;46.104;19.656;2023-02-28T04:14:52;51.70;2227.20
56123;DHT22;42426;46.104;19.656;2023-02-28T04:17:18;51.70;2227.20
56123;DHT22;42426;46.104;19.656;2023-02-28T04:19:44;51.80;2227.20
56123;DHT22;42426;46.104;19.656;2023-02-28T04:22:10;51.80;2227.20
56123;DHT22;42426;46.104;19.656;2023-02-28T04:24:36;51.90;2227.20
56123;DHT22;42426;46.104;19.656;2023-02-28T04:27:02;51.80;2227.20
56123;DHT22;42426;46.104;19.656;2023-02-28T04:29:30;51.80;2227.20
56123;DHT22;42426;46.104;19.656;2023-02-28T04:31:58;51.70;2227.20
56123;DHT22;42426;46.104;19.656;2023-02-28T04:34:25;51.60;2227.20
56123;DHT22;42426;46.104;19.656;2023-02-28T04:36:51;51.70;2227.20
56123;DHT22;42426;46.104;19.656;2023-02-28T04:39:20;51.70;2227.20
56123;DHT22;42426;46.104;19.656;2023-02-28T04:41:46;51.60;2227.20
56123;DHT22;42426;46.104;19.656;2023-02-28T04:44:13;51.70;2227.20
56123;DHT22;42426;46.104;19.656;2023-02-28T04:46:38;51.70;2227.20
56123;DHT22;42426;46.104;19.656;2023-02-28T04:49:04;51.60;2227.20
56123;DHT22;42426;46.104;19.656;2023-02-28T04:51:30;51.60;2227.20
56123;DHT22;42426;46.104;19.656;2023-02-28T04:53:56;51.60;2227.20
56123;DHT22;42426;46.104;19.656;2023-02-28T04:56:21;51.60;2227.20
56123;DHT22;42426;46.104;19.656;2023-02-28T04:58:48;51.60;2227.20
56123;DHT22;42426;46.104;19.656;2023-02-28T05:01:25;51.70;2227.20
56123;DHT22;42426;46.104;19.656;2023-02-28T05:03:52;51.60;2227.20
56123;DHT22;42426;46.104;19.656;2023-02-28T05:06:24;51.70;2227.20
56123;DHT22;42426;46.104;19.656;2023-02-28T05:08:50;51.60;2227.20
56123;DHT22;42426;46.104;19.656;2023-02-28T05:11:23;51.60;2227.20
56123;DHT22;42426;46.104;19.656;2023-02-28T05:13:50;51.60;2227.20
56123;DHT22;42426;46.104;19.656;2023-02-28T05:16:17;51.50;2227.20
